createdAt,value
2022-10-23T00:01:46.161Z,78.70
2022-10-23T00:04:22.535Z,78.84
2022-10-23T00:06:51.529Z,79.22
2022-10-23T00:09:22.668Z,79.32
2022-10-23T00:11:51.580Z,78.95
2022-10-23T00:14:22.993Z,78.26
2022-10-23T00:16:51.592Z,78.70
2022-10-23T00:19:19.561Z,78.53
2022-10-23T00:21:47.407Z,78.72
2022-10-23T00:24:15.502Z,79.59
2022-10-23T00:26:43.469Z,79.69
2022-10-23T00:29:11.850Z,80.30
2022-10-23T00:31:40.129Z,80.33
2022-10-23T00:34:08.843Z,80.01
2022-10-23T00:36:38.105Z,80.47
2022-10-23T00:39:06.601Z,80.82
2022-10-23T00:41:35.178Z,81.16
2022-10-23T00:44:31.615Z,81.04
2022-10-23T00:47:00.300Z,81.44
2022-10-23T00:49:28.526Z,81.40
2022-10-23T00:52:01.293Z,81.01
2022-10-23T00:54:34.440Z,81.01
2022-10-23T00:57:05.064Z,80.54
2022-10-23T00:59:33.790Z,80.49
2022-10-23T01:02:01.958Z,80.75
2022-10-23T01:04:30.731Z,80.06
2022-10-23T01:07:28.832Z,80.45
2022-10-23T01:10:04.039Z,80.85
2022-10-23T01:12:43.080Z,80.74
2022-10-23T01:15:22.591Z,80.34
2022-10-23T01:18:00.212Z,80.66
2022-10-23T01:20:43.644Z,80.89
2022-10-23T01:23:14.997Z,80.83
2022-10-23T01:26:03.747Z,80.62
2022-10-23T01:28:39.198Z,81.16
2022-10-23T01:31:14.536Z,81.13
2022-10-23T01:33:49.190Z,80.97
2022-10-23T01:36:28.726Z,81.26
2022-10-23T01:39:09.782Z,81.23
2022-10-23T01:41:47.037Z,81.55
2022-10-23T01:44:34.080Z,81.73
2022-10-23T01:47:03.897Z,80.82
2022-10-23T01:49:39.364Z,81.21
2022-10-23T01:52:11.917Z,81.80
2022-10-23T01:54:44.902Z,82.43
2022-10-23T01:57:17.077Z,82.67
2022-10-23T01:59:51.051Z,82.67
2022-10-23T02:02:22.784Z,82.46
2022-10-23T02:04:57.159Z,82.90
2022-10-23T02:07:25.235Z,82.31
2022-10-23T02:09:53.716Z,82.36
2022-10-23T02:12:37.529Z,82.14
2022-10-23T02:15:33.478Z,83.15
2022-10-23T02:18:04.825Z,83.34
2022-10-23T02:20:41.656Z,83.39
2022-10-23T02:23:09.570Z,83.53
2022-10-23T02:25:46.353Z,83.43
2022-10-23T02:28:19.644Z,83.71
2022-10-23T02:30:50.732Z,83.68
2022-10-23T02:33:19.990Z,83.00
2022-10-23T02:35:49.284Z,83.03
2022-10-23T02:38:34.679Z,82.89
2022-10-23T02:41:17.895Z,81.93
2022-10-23T02:44:13.174Z,82.17
2022-10-23T02:46:50.286Z,81.65
2022-10-23T02:49:48.765Z,81.20
2022-10-23T02:52:30.866Z,81.56
2022-10-23T02:55:08.668Z,80.95
2022-10-23T02:57:53.436Z,80.98
2022-10-23T03:00:23.995Z,81.14
2022-10-23T03:03:04.731Z,80.87
2022-10-23T03:05:37.820Z,80.39
2022-10-23T03:08:09.673Z,80.33
2022-10-23T03:10:38.361Z,79.58
2022-10-23T03:13:08.183Z,80.05
2022-10-23T03:15:41.685Z,79.72
2022-10-23T03:18:13.231Z,79.55
2022-10-23T03:20:42.231Z,79.60
2022-10-23T03:23:13.090Z,79.67
2022-10-23T03:25:41.133Z,79.60
2022-10-23T03:28:09.026Z,79.50
2022-10-23T03:30:37.204Z,79.67
2022-10-23T03:33:05.143Z,79.51
2022-10-23T03:35:35.423Z,79.25
2022-10-23T03:38:03.954Z,78.74
2022-10-23T03:40:32.028Z,78.60
2022-10-23T03:42:59.889Z,78.15
2022-10-23T03:45:31.239Z,77.69
2022-10-23T03:47:59.208Z,77.07
2022-10-23T03:50:27.151Z,77.62
2022-10-23T03:52:55.248Z,77.80
2022-10-23T03:55:23.287Z,77.73
2022-10-23T03:57:51.757Z,78.31
2022-10-23T04:00:21.816Z,78.73
2022-10-23T04:02:49.899Z,78.63
2022-10-23T04:05:18.168Z,78.81
2022-10-23T04:07:52.550Z,78.95
2022-10-23T04:10:20.665Z,79.09
2022-10-23T04:12:48.733Z,79.40
2022-10-23T04:15:16.810Z,79.54
2022-10-23T04:17:47.234Z,79.60
2022-10-23T04:20:15.404Z,79.79
2022-10-23T04:22:43.676Z,79.59
2022-10-23T04:25:13.294Z,79.83
2022-10-23T04:27:41.562Z,80.24
2022-10-23T04:30:10.733Z,80.68
2022-10-23T04:32:39.453Z,80.68
2022-10-23T04:35:08.137Z,80.47
2022-10-23T04:37:36.208Z,80.09
2022-10-23T04:40:04.696Z,79.93
2022-10-23T04:42:36.346Z,80.14
2022-10-23T04:45:05.813Z,80.72
2022-10-23T04:47:33.845Z,80.22
2022-10-23T04:50:01.901Z,79.84
2022-10-23T04:52:48.708Z,80.15
2022-10-23T04:55:35.181Z,80.15
2022-10-23T04:58:27.281Z,79.86
2022-10-23T05:00:58.680Z,79.78
2022-10-23T05:03:27.794Z,79.67
2022-10-23T05:05:57.111Z,79.92
2022-10-23T05:08:25.426Z,80.02
2022-10-23T05:11:05.932Z,80.32
2022-10-23T05:13:39.382Z,80.29
2022-10-23T05:16:07.296Z,80.31
2022-10-23T05:18:35.267Z,80.53
2022-10-23T05:21:09.140Z,80.02
2022-10-23T05:23:41.041Z,80.28
2022-10-23T05:26:09.111Z,80.45
2022-10-23T05:28:38.006Z,80.47
2022-10-23T05:31:06.681Z,79.96
2022-10-23T05:33:38.341Z,80.25
2022-10-23T05:36:07.525Z,79.97
2022-10-23T05:38:36.308Z,80.52
2022-10-23T05:41:11.556Z,80.56
2022-10-23T05:43:39.424Z,80.26
2022-10-23T05:46:11.295Z,80.40
2022-10-23T05:48:45.306Z,80.65
2022-10-23T05:51:22.510Z,80.59
2022-10-23T05:54:13.090Z,80.42
2022-10-23T05:56:59.389Z,80.68
2022-10-23T05:59:43.130Z,80.50
2022-10-23T06:02:20.257Z,80.72
2022-10-23T06:04:52.994Z,80.48
2022-10-23T06:07:47.142Z,80.41
2022-10-23T06:10:15.354Z,80.46
2022-10-23T06:12:45.990Z,79.60
2022-10-23T06:15:17.033Z,79.16
2022-10-23T06:18:08.138Z,79.60
2022-10-23T06:20:39.589Z,79.80
2022-10-23T06:23:11.551Z,79.57
2022-10-23T06:26:06.356Z,79.47
2022-10-23T06:28:41.391Z,79.49
2022-10-23T06:31:13.253Z,79.41
2022-10-23T06:33:42.244Z,79.26
2022-10-23T06:36:10.911Z,78.91
2022-10-23T06:38:40.885Z,78.72
2022-10-23T06:41:22.538Z,78.86
2022-10-23T06:43:55.018Z,78.74
2022-10-23T06:46:42.542Z,78.48
2022-10-23T06:49:30.785Z,78.03
2022-10-23T06:51:59.569Z,77.57
2022-10-23T06:54:27.701Z,77.46
2022-10-23T06:57:10.976Z,77.82
2022-10-23T06:59:46.618Z,77.93
2022-10-23T07:02:14.905Z,78.24
2022-10-23T07:04:43.072Z,78.22
2022-10-23T07:07:15.547Z,78.34
2022-10-23T07:09:48.713Z,78.25
2022-10-23T07:12:39.743Z,78.34
2022-10-23T07:15:27.796Z,79.08
2022-10-23T07:17:56.212Z,78.68
2022-10-23T07:20:24.244Z,78.58
2022-10-23T07:22:54.619Z,78.75
2022-10-23T07:25:41.376Z,78.97
2022-10-23T07:28:09.865Z,78.74
2022-10-23T07:30:37.833Z,79.27
2022-10-23T07:33:05.843Z,79.38
2022-10-23T07:35:39.914Z,79.26
2022-10-23T07:38:14.150Z,79.62
2022-10-23T07:40:47.520Z,79.21
2022-10-23T07:43:18.752Z,79.13
2022-10-23T07:45:48.996Z,79.12
2022-10-23T07:48:27.915Z,79.71
2022-10-23T07:51:08.555Z,78.69
2022-10-23T07:53:40.346Z,78.78
2022-10-23T07:56:31.887Z,78.08
2022-10-23T07:59:18.567Z,77.50
2022-10-23T08:01:53.852Z,77.05
2022-10-23T08:04:25.463Z,76.82
2022-10-23T08:06:58.764Z,76.61
2022-10-23T08:09:26.713Z,76.65
2022-10-23T08:11:54.802Z,76.50
2022-10-23T08:14:24.288Z,76.40
2022-10-23T08:16:52.327Z,76.45
2022-10-23T08:19:20.350Z,76.53
2022-10-23T08:21:50.075Z,76.35
2022-10-23T08:24:18.135Z,76.02
2022-10-23T08:26:50.102Z,76.26
2022-10-23T08:29:19.067Z,75.98
2022-10-23T08:31:47.371Z,76.25
2022-10-23T08:34:27.929Z,76.09
2022-10-23T08:36:56.001Z,75.89
2022-10-23T08:39:24.483Z,75.82
2022-10-23T08:42:27.020Z,76.01
2022-10-23T08:44:59.854Z,75.80
2022-10-23T08:47:41.333Z,76.28
2022-10-23T08:50:40.639Z,75.91
2022-10-23T08:53:25.706Z,75.72
2022-10-23T08:56:01.767Z,75.82
2022-10-23T08:58:40.766Z,75.39
2022-10-23T09:01:44.315Z,75.39
2022-10-23T09:04:14.426Z,75.24
2022-10-23T09:06:54.314Z,75.23
2022-10-23T09:09:51.419Z,74.67
2022-10-23T09:12:28.299Z,74.27
2022-10-23T09:15:21.969Z,73.98
2022-10-23T09:17:57.829Z,74.09
2022-10-23T09:20:34.595Z,73.36
2022-10-23T09:23:17.116Z,73.17
2022-10-23T09:25:46.873Z,73.20
2022-10-23T09:28:23.603Z,72.85
2022-10-23T09:30:52.489Z,72.77
2022-10-23T09:33:25.269Z,72.44
2022-10-23T09:36:05.227Z,72.20
2022-10-23T09:38:37.479Z,71.88
2022-10-23T09:41:14.169Z,71.61
2022-10-23T09:43:42.032Z,71.47
2022-10-23T09:46:11.991Z,71.50
2022-10-23T09:48:42.565Z,71.15
2022-10-23T09:51:21.510Z,71.29
2022-10-23T09:53:57.154Z,71.26
2022-10-23T09:56:25.326Z,71.16
2022-10-23T09:59:13.477Z,70.90
2022-10-23T10:02:28.953Z,70.70
2022-10-23T10:05:32.157Z,70.52
2022-10-23T10:08:20.407Z,70.36
2022-10-23T10:11:10.795Z,70.21
2022-10-23T10:13:59.444Z,69.77
2022-10-23T10:16:48.850Z,69.45
2022-10-23T10:19:36.860Z,69.33
2022-10-23T10:22:25.101Z,68.80
2022-10-23T10:24:58.088Z,68.68
2022-10-23T10:28:03.643Z,68.81
2022-10-23T10:30:59.667Z,68.78
2022-10-23T10:33:27.548Z,68.85
2022-10-23T10:36:11.385Z,69.03
2022-10-23T10:38:57.467Z,69.28
2022-10-23T10:42:04.153Z,69.31
2022-10-23T10:44:50.547Z,69.69
2022-10-23T10:47:47.651Z,69.39
2022-10-23T10:50:55.590Z,68.60
2022-10-23T10:53:50.820Z,66.35
2022-10-23T10:56:22.163Z,65.05
2022-10-23T10:58:58.119Z,64.22
2022-10-23T11:01:30.973Z,63.69
2022-10-23T11:04:11.676Z,63.18
2022-10-23T11:06:41.797Z,63.29
2022-10-23T11:09:29.329Z,63.44
2022-10-23T11:11:59.009Z,63.89
2022-10-23T11:14:29.785Z,64.39
2022-10-23T11:16:57.942Z,64.73
2022-10-23T11:19:29.687Z,65.02
2022-10-23T11:22:09.850Z,65.03
2022-10-23T11:25:02.607Z,65.61
2022-10-23T11:28:04.374Z,66.10
2022-10-23T11:30:54.757Z,65.84
2022-10-23T11:33:49.060Z,65.62
2022-10-23T11:36:16.918Z,65.84
2022-10-23T11:38:51.063Z,66.28
2022-10-23T11:41:23.677Z,67.21
2022-10-23T11:44:01.455Z,67.33
2022-10-23T11:46:35.521Z,67.09
2022-10-23T11:49:06.544Z,66.66
2022-10-23T11:51:41.602Z,66.76
2022-10-23T11:54:15.518Z,66.64
2022-10-23T11:57:10.559Z,66.56
2022-10-23T11:59:45.033Z,66.79
2022-10-23T12:02:28.406Z,67.04
2022-10-23T12:04:56.841Z,66.45
2022-10-23T12:07:30.954Z,65.93
2022-10-23T12:10:25.240Z,64.67
2022-10-23T12:13:04.069Z,63.47
2022-10-23T12:15:35.378Z,62.74
2022-10-23T12:18:15.933Z,62.23
2022-10-23T12:20:54.390Z,61.61
2022-10-23T12:23:43.184Z,60.79
2022-10-23T12:26:16.747Z,60.69
2022-10-23T12:29:02.946Z,60.54
2022-10-23T12:32:00.304Z,60.67
2022-10-23T12:34:47.019Z,61.11
2022-10-23T12:37:39.764Z,60.65
2022-10-23T12:40:10.223Z,61.25
2022-10-23T12:42:38.776Z,61.39
2022-10-23T12:45:43.542Z,61.81
2022-10-23T12:48:23.066Z,61.92
2022-10-23T12:50:54.706Z,62.40
2022-10-23T12:53:24.199Z,61.80
2022-10-23T12:56:05.296Z,60.94
2022-10-23T12:58:35.318Z,60.68
2022-10-23T13:01:07.262Z,60.91
2022-10-23T13:03:36.262Z,60.66
2022-10-23T13:06:06.583Z,60.74
2022-10-23T13:08:42.207Z,60.95
2022-10-23T13:11:24.703Z,61.11
2022-10-23T13:13:53.435Z,61.43
2022-10-23T13:16:23.994Z,61.40
2022-10-23T13:18:52.209Z,61.57
2022-10-23T13:21:26.619Z,61.68
2022-10-23T13:23:55.352Z,62.23
2022-10-23T13:26:32.986Z,62.27
2022-10-23T13:29:11.453Z,62.22
2022-10-23T13:31:39.424Z,61.72
2022-10-23T13:34:18.455Z,61.10
2022-10-23T13:36:59.632Z,60.40
2022-10-23T13:39:36.308Z,59.61
2022-10-23T13:42:14.318Z,59.56
2022-10-23T13:44:43.266Z,59.90
2022-10-23T13:47:16.041Z,60.33
2022-10-23T13:49:44.064Z,60.73
2022-10-23T13:52:14.897Z,61.19
2022-10-23T13:54:43.734Z,61.26
2022-10-23T13:57:14.933Z,61.41
2022-10-23T13:59:43.103Z,61.44
2022-10-23T14:02:19.196Z,61.59
2022-10-23T14:04:49.021Z,61.71
2022-10-23T14:07:17.049Z,61.81
2022-10-23T14:09:45.322Z,61.81
2022-10-23T14:12:13.829Z,61.99
2022-10-23T14:14:41.883Z,61.98
2022-10-23T14:17:09.850Z,61.96
2022-10-23T14:22:10.906Z,62.10
2022-10-23T14:24:38.873Z,61.14
2022-10-23T14:27:06.768Z,61.10
2022-10-23T14:29:34.692Z,61.29
2022-10-23T14:32:02.689Z,62.03
2022-10-23T14:34:30.960Z,62.80
2022-10-23T14:37:11.064Z,62.04
2022-10-23T14:39:39.185Z,62.04
2022-10-23T14:42:07.157Z,62.25
2022-10-23T14:44:35.332Z,62.74
2022-10-23T14:47:03.435Z,62.61
2022-10-23T14:49:32.287Z,62.69
2022-10-23T14:52:00.200Z,63.68
2022-10-23T14:54:29.564Z,63.66
2022-10-23T14:56:57.528Z,63.94
2022-10-23T14:59:25.425Z,64.07
2022-10-23T15:04:23.183Z,64.82
2022-10-23T15:06:51.561Z,65.76
2022-10-23T15:09:20.550Z,66.62
2022-10-23T15:11:48.523Z,66.02
2022-10-23T15:14:16.601Z,66.20
2022-10-23T15:16:44.767Z,66.47
2022-10-23T15:19:18.585Z,66.67
2022-10-23T15:21:48.290Z,66.47
2022-10-23T15:24:17.896Z,66.81
2022-10-23T15:26:45.861Z,66.79
2022-10-23T15:29:14.978Z,67.59
2022-10-23T15:31:48.766Z,67.92
2022-10-23T15:34:19.411Z,68.66
2022-10-23T15:36:48.696Z,69.88
2022-10-23T15:39:20.249Z,70.16
2022-10-23T15:41:51.597Z,69.91
2022-10-23T15:44:21.608Z,69.84
2022-10-23T15:46:50.719Z,69.76
2022-10-23T15:49:19.196Z,69.52
2022-10-23T15:51:47.479Z,69.36
2022-10-23T15:54:18.974Z,69.81
2022-10-23T15:56:49.661Z,69.85
2022-10-23T15:59:19.369Z,69.82
2022-10-23T16:01:47.964Z,70.00
2022-10-23T16:04:16.941Z,70.41
2022-10-23T16:06:45.536Z,70.32
2022-10-23T16:09:14.522Z,70.41
2022-10-23T16:11:43.554Z,70.54
2022-10-23T16:14:17.479Z,71.04
2022-10-23T16:16:45.498Z,71.48
2022-10-23T16:19:13.462Z,71.48
2022-10-23T16:21:42.212Z,71.26
2022-10-23T16:24:10.939Z,71.38
2022-10-23T16:26:39.213Z,71.47
2022-10-23T16:29:09.025Z,71.51
2022-10-23T16:31:37.604Z,72.11
2022-10-23T16:34:06.006Z,72.44
2022-10-23T16:36:35.192Z,72.55
2022-10-23T16:39:21.470Z,72.69
2022-10-23T16:42:08.077Z,72.76
2022-10-23T16:44:54.910Z,72.85
2022-10-23T16:47:22.874Z,73.01
2022-10-23T16:49:51.056Z,72.91
2022-10-23T16:52:18.918Z,73.37
2022-10-23T16:54:46.992Z,73.56
2022-10-23T16:57:14.957Z,73.76
2022-10-23T16:59:44.023Z,73.67
2022-10-23T17:02:12.825Z,73.65
2022-10-23T17:04:40.856Z,73.97
2022-10-23T17:07:09.355Z,74.04
2022-10-23T17:09:38.597Z,73.89
2022-10-23T17:12:07.021Z,74.28
2022-10-23T17:14:34.944Z,74.24
2022-10-23T17:17:03.839Z,73.67
2022-10-23T17:19:44.177Z,72.94
2022-10-23T17:22:13.922Z,73.67
2022-10-23T17:24:45.145Z,73.23
2022-10-23T17:27:15.986Z,73.32
2022-10-23T17:29:44.131Z,75.61
2022-10-23T17:32:12.083Z,75.93
2022-10-23T17:34:40.105Z,75.56
2022-10-23T17:37:09.196Z,75.43
2022-10-23T17:39:37.092Z,75.35
2022-10-23T17:42:05.029Z,74.87
2022-10-23T17:44:33.212Z,74.62
2022-10-23T17:47:01.181Z,74.58
2022-10-23T17:49:29.148Z,74.13
2022-10-23T17:51:58.048Z,73.85
2022-10-23T17:54:27.035Z,74.03
2022-10-23T17:56:56.437Z,74.25
2022-10-23T17:59:24.611Z,74.57
2022-10-23T18:01:52.649Z,75.03
2022-10-23T18:04:21.678Z,75.14
2022-10-23T18:06:52.942Z,74.74
2022-10-23T18:09:22.430Z,74.60
2022-10-23T18:11:50.496Z,74.89
2022-10-23T18:14:21.489Z,74.86
2022-10-23T18:16:51.353Z,74.80
2022-10-23T18:19:19.934Z,74.86
2022-10-23T18:21:49.033Z,74.73
2022-10-23T18:24:17.823Z,75.24
2022-10-23T18:26:48.285Z,75.33
2022-10-23T18:29:17.651Z,74.91
2022-10-23T18:31:48.331Z,74.66
2022-10-23T18:34:24.855Z,74.68
2022-10-23T18:36:54.349Z,75.64
2022-10-23T18:39:24.988Z,75.22
2022-10-23T18:41:56.623Z,74.33
2022-10-23T18:44:28.861Z,75.87
2022-10-23T18:46:58.835Z,76.60
2022-10-23T18:49:27.522Z,77.07
2022-10-23T18:51:55.595Z,76.89
2022-10-23T18:54:23.560Z,76.38
2022-10-23T18:56:51.536Z,76.52
2022-10-23T18:59:20.824Z,76.40
2022-10-23T19:01:49.965Z,76.61
2022-10-23T19:04:18.918Z,76.12
2022-10-23T19:06:48.117Z,75.24
2022-10-23T19:09:16.699Z,77.32
2022-10-23T19:11:46.208Z,78.63
2022-10-23T19:14:14.176Z,77.60
2022-10-23T19:17:11.224Z,77.24
2022-10-23T19:19:47.088Z,76.99
2022-10-23T19:22:17.226Z,76.85
2022-10-23T19:24:48.984Z,78.88
2022-10-23T19:27:19.411Z,79.85
2022-10-23T19:29:49.841Z,80.10
2022-10-23T19:32:17.915Z,79.24
2022-10-23T19:34:45.967Z,78.94
2022-10-23T19:39:47.422Z,78.33
2022-10-23T19:42:15.399Z,77.60
2022-10-23T19:44:43.361Z,78.09
2022-10-23T19:47:11.232Z,78.11
2022-10-23T19:49:39.397Z,78.41
2022-10-23T19:52:07.474Z,79.04
2022-10-23T19:54:36.080Z,79.18
2022-10-23T19:57:04.280Z,79.56
2022-10-23T19:59:32.215Z,79.03
2022-10-23T20:02:00.700Z,78.92
2022-10-23T20:04:31.826Z,78.76
2022-10-23T20:06:59.797Z,78.39
2022-10-23T20:09:27.874Z,77.86
2022-10-23T20:11:55.842Z,77.01
2022-10-23T20:14:23.814Z,76.46
2022-10-23T20:16:55.714Z,76.00
2022-10-23T20:19:24.262Z,76.57
2022-10-23T20:21:52.223Z,76.79
2022-10-23T20:24:21.380Z,76.59
2022-10-23T20:26:54.310Z,76.08
2022-10-23T20:29:24.763Z,76.03
2022-10-23T20:31:53.212Z,76.80
2022-10-23T20:34:21.392Z,76.94
2022-10-23T20:36:49.987Z,76.74
2022-10-23T20:39:26.857Z,76.89
2022-10-23T20:41:56.270Z,77.18
2022-10-23T20:44:24.737Z,77.32
2022-10-23T20:46:53.322Z,77.02
2022-10-23T20:49:22.523Z,76.98
2022-10-23T20:51:54.905Z,76.89
2022-10-23T20:54:26.143Z,76.99
2022-10-23T20:56:54.715Z,77.47
2022-10-23T20:59:22.844Z,77.21
2022-10-23T21:01:53.270Z,76.89
2022-10-23T21:04:25.228Z,77.18
2022-10-23T21:07:11.630Z,76.86
2022-10-23T21:09:40.300Z,77.66
2022-10-23T21:12:09.312Z,77.94
2022-10-23T21:14:37.340Z,78.41
2022-10-23T21:17:05.406Z,79.04
2022-10-23T21:19:33.372Z,79.26
2022-10-23T21:22:01.343Z,79.72
2022-10-23T21:24:29.317Z,79.82
2022-10-23T21:26:57.182Z,79.79
2022-10-23T21:29:25.160Z,80.18
2022-10-23T21:31:56.093Z,80.83
2022-10-23T21:34:25.286Z,80.91
2022-10-23T21:37:12.372Z,81.03
2022-10-23T21:39:42.428Z,80.75
2022-10-23T21:42:11.744Z,80.75
2022-10-23T21:44:40.209Z,80.66
2022-10-23T21:47:08.385Z,80.31
2022-10-23T21:49:36.351Z,80.46
2022-10-23T21:52:05.041Z,79.68
2022-10-23T21:54:33.318Z,78.95
2022-10-23T21:57:03.394Z,78.22
2022-10-23T21:59:35.476Z,78.05
2022-10-23T22:02:04.331Z,77.96
2022-10-23T22:04:32.976Z,77.62
2022-10-23T22:07:02.859Z,77.48
2022-10-23T22:09:32.500Z,77.16
2022-10-23T22:12:01.186Z,77.33
2022-10-23T22:14:29.362Z,77.13
2022-10-23T22:16:57.887Z,77.23
2022-10-23T22:19:25.842Z,77.30
2022-10-23T22:21:54.396Z,76.96
2022-10-23T22:24:22.467Z,77.21
2022-10-23T22:26:53.656Z,77.23
2022-10-23T22:29:24.801Z,77.03
2022-10-23T22:31:53.142Z,77.04
2022-10-23T22:34:51.420Z,77.10
2022-10-23T22:37:14.154Z,77.02
2022-10-23T22:39:42.334Z,77.37
2022-10-23T22:42:10.608Z,78.00
2022-10-23T22:44:38.575Z,78.70
2022-10-23T22:47:07.063Z,78.29
2022-10-23T22:49:35.344Z,78.31
2022-10-23T22:52:03.414Z,77.78
2022-10-23T22:54:31.784Z,77.65
2022-10-23T22:56:59.876Z,79.50
2022-10-23T22:59:27.933Z,79.71
2022-10-23T23:01:56.212Z,80.41
2022-10-23T23:04:39.739Z,81.13
2022-10-23T23:07:10.372Z,81.71
2022-10-23T23:09:42.854Z,81.48
2022-10-23T23:12:13.141Z,81.07
2022-10-23T23:14:41.954Z,80.91
2022-10-23T23:17:10.549Z,81.21
2022-10-23T23:19:39.231Z,81.37
2022-10-23T23:22:07.523Z,81.41
2022-10-23T23:24:35.889Z,80.60
2022-10-23T23:27:03.810Z,80.38
2022-10-23T23:29:32.442Z,80.43
2022-10-23T23:32:00.613Z,80.59
2022-10-23T23:34:28.835Z,80.55
2022-10-23T23:36:56.725Z,80.56
2022-10-23T23:39:26.273Z,80.67
2022-10-23T23:41:54.342Z,80.87
2022-10-23T23:44:22.301Z,80.91
2022-10-23T23:46:50.284Z,80.96
2022-10-23T23:49:18.169Z,81.47
2022-10-23T23:51:46.109Z,81.97
2022-10-23T23:54:14.496Z,81.87
2022-10-23T23:56:42.336Z,81.74
2022-10-23T23:59:10.222Z,81.92
